sensor_id;sensor_type;location;lat;lon;timestamp;temperature;humidity
292;DHT22;23311;48.776;9.162;2023-06-10T00:01:26;18.30;91.40
292;DHT22;23311;48.776;9.162;2023-06-10T00:03:54;18.40;91.50
292;DHT22;23311;48.776;9.162;2023-06-10T00:06:22;18.60;91.10
292;DHT22;23311;48.776;9.162;2023-06-10T00:08:52;18.30;91.50
292;DHT22;23311;48.776;9.162;2023-06-10T00:11:21;18.20;92.10
292;DHT22;23311;48.776;9.162;2023-06-10T00:13:49;18.00;92.30
292;DHT22;23311;48.776;9.162;2023-06-10T00:16:17;17.80;93.00
292;DHT22;23311;48.776;9.162;2023-06-10T00:18:46;17.90;93.00
292;DHT22;23311;48.776;9.162;2023-06-10T00:21:15;17.90;92.80
292;DHT22;23311;48.776;9.162;2023-06-10T00:23:44;17.80;93.50
292;DHT22;23311;48.776;9.162;2023-06-10T00:26:13;17.80;93.60
292;DHT22;23311;48.776;9.162;2023-06-10T00:28:42;17.70;94.10
292;DHT22;23311;48.776;9.162;2023-06-10T00:31:11;17.70;94.10
292;DHT22;23311;48.776;9.162;2023-06-10T00:33:40;17.50;94.60
292;DHT22;23311;48.776;9.162;2023-06-10T00:36:08;17.50;95.00
292;DHT22;23311;48.776;9.162;2023-06-10T00:38:36;17.40;95.30
292;DHT22;23311;48.776;9.162;2023-06-10T00:41:04;17.40;95.50
292;DHT22;23311;48.776;9.162;2023-06-10T00:43:34;17.30;95.50
292;DHT22;23311;48.776;9.162;2023-06-10T00:46:02;17.40;95.50
292;DHT22;23311;48.776;9.162;2023-06-10T00:48:30;17.50;95.50
292;DHT22;23311;48.776;9.162;2023-06-10T00:51:00;17.70;95.20
292;DHT22;23311;48.776;9.162;2023-06-10T00:53:28;17.50;95.50
292;DHT22;23311;48.776;9.162;2023-06-10T00:55:56;17.30;95.50
292;DHT22;23311;48.776;9.162;2023-06-10T00:58:25;17.20;95.50
292;DHT22;23311;48.776;9.162;2023-06-10T01:00:55;17.20;95.50
292;DHT22;23311;48.776;9.162;2023-06-10T01:03:24;17.30;95.50
292;DHT22;23311;48.776;9.162;2023-06-10T01:05:59;17.50;95.50
292;DHT22;23311;48.776;9.162;2023-06-10T01:08:35;17.40;95.50
292;DHT22;23311;48.776;9.162;2023-06-10T01:11:10;17.20;95.50
292;DHT22;23311;48.776;9.162;2023-06-10T01:13:41;17.30;95.50
292;DHT22;23311;48.776;9.162;2023-06-10T01:16:12;17.30;95.50
292;DHT22;23311;48.776;9.162;2023-06-10T01:18:41;17.30;95.50
292;DHT22;23311;48.776;9.162;2023-06-10T01:21:16;17.20;95.50
292;DHT22;23311;48.776;9.162;2023-06-10T01:23:44;17.50;95.50
292;DHT22;23311;48.776;9.162;2023-06-10T01:26:12;17.50;95.50
292;DHT22;23311;48.776;9.162;2023-06-10T01:28:46;17.30;95.50
292;DHT22;23311;48.776;9.162;2023-06-10T01:31:20;17.20;95.50
292;DHT22;23311;48.776;9.162;2023-06-10T01:33:52;17.10;95.50
292;DHT22;23311;48.776;9.162;2023-06-10T01:36:23;16.90;95.50
292;DHT22;23311;48.776;9.162;2023-06-10T01:38:53;16.80;95.50
292;DHT22;23311;48.776;9.162;2023-06-10T01:41:22;16.80;95.50
292;DHT22;23311;48.776;9.162;2023-06-10T01:43:51;16.90;95.50
292;DHT22;23311;48.776;9.162;2023-06-10T01:46:19;16.90;95.50
292;DHT22;23311;48.776;9.162;2023-06-10T01:48:48;16.80;95.50
292;DHT22;23311;48.776;9.162;2023-06-10T01:51:16;16.60;95.50
292;DHT22;23311;48.776;9.162;2023-06-10T01:53:45;16.60;95.50
292;DHT22;23311;48.776;9.162;2023-06-10T01:56:14;16.70;95.50
292;DHT22;23311;48.776;9.162;2023-06-10T01:58:44;16.60;95.50
292;DHT22;23311;48.776;9.162;2023-06-10T02:01:13;16.50;95.50
292;DHT22;23311;48.776;9.162;2023-06-10T02:03:41;16.50;95.50
292;DHT22;23311;48.776;9.162;2023-06-10T02:06:09;16.50;95.50
292;DHT22;23311;48.776;9.162;2023-06-10T02:08:37;16.50;95.50
292;DHT22;23311;48.776;9.162;2023-06-10T02:11:07;16.50;95.50
292;DHT22;23311;48.776;9.162;2023-06-10T02:13:35;16.70;95.50
292;DHT22;23311;48.776;9.162;2023-06-10T02:16:03;16.90;95.50
292;DHT22;23311;48.776;9.162;2023-06-10T02:18:33;16.80;95.50
292;DHT22;23311;48.776;9.162;2023-06-10T02:21:01;16.70;95.50
292;DHT22;23311;48.776;9.162;2023-06-10T02:23:29;16.60;95.50
292;DHT22;23311;48.776;9.162;2023-06-10T02:25:57;16.60;95.50
292;DHT22;23311;48.776;9.162;2023-06-10T02:28:26;16.50;95.50
292;DHT22;23311;48.776;9.162;2023-06-10T02:30:54;16.50;95.50
292;DHT22;23311;48.776;9.162;2023-06-10T02:33:24;16.40;95.50
292;DHT22;23311;48.776;9.162;2023-06-10T02:35:52;16.40;95.50
292;DHT22;23311;48.776;9.162;2023-06-10T02:38:20;16.50;95.50
292;DHT22;23311;48.776;9.162;2023-06-10T02:40:48;16.70;95.50
292;DHT22;23311;48.776;9.162;2023-06-10T02:43:16;16.50;95.50
292;DHT22;23311;48.776;9.162;2023-06-10T02:45:45;16.30;95.50
292;DHT22;23311;48.776;9.162;2023-06-10T02:48:13;16.20;95.50
292;DHT22;23311;48.776;9.162;2023-06-10T02:50:41;16.10;95.50
292;DHT22;23311;48.776;9.162;2023-06-10T02:53:09;16.40;95.50
292;DHT22;23311;48.776;9.162;2023-06-10T02:55:37;16.40;95.50
292;DHT22;23311;48.776;9.162;2023-06-10T02:58:06;16.70;95.50
292;DHT22;23311;48.776;9.162;2023-06-10T03:00:34;16.80;95.50
292;DHT22;23311;48.776;9.162;2023-06-10T03:03:04;16.80;95.50
292;DHT22;23311;48.776;9.162;2023-06-10T03:05:32;16.60;95.50
292;DHT22;23311;48.776;9.162;2023-06-10T03:08:00;16.40;95.50
292;DHT22;23311;48.776;9.162;2023-06-10T03:10:28;16.50;95.50
292;DHT22;23311;48.776;9.162;2023-06-10T03:12:57;16.50;95.50
292;DHT22;23311;48.776;9.162;2023-06-10T03:15:25;16.40;95.50
292;DHT22;23311;48.776;9.162;2023-06-10T03:17:55;16.40;95.50
292;DHT22;23311;48.776;9.162;2023-06-10T03:20:25;16.30;95.50
292;DHT22;23311;48.776;9.162;2023-06-10T03:22:54;16.30;95.50
292;DHT22;23311;48.776;9.162;2023-06-10T03:25:22;16.30;95.50
292;DHT22;23311;48.776;9.162;2023-06-10T03:27:50;16.30;95.50
292;DHT22;23311;48.776;9.162;2023-06-10T03:30:18;16.10;95.50
292;DHT22;23311;48.776;9.162;2023-06-10T03:32:46;16.10;95.50
292;DHT22;23311;48.776;9.162;2023-06-10T03:35:15;16.10;95.50
292;DHT22;23311;48.776;9.162;2023-06-10T03:37:45;16.00;95.50
292;DHT22;23311;48.776;9.162;2023-06-10T03:40:13;16.00;95.50
292;DHT22;23311;48.776;9.162;2023-06-10T03:42:41;15.90;95.50
292;DHT22;23311;48.776;9.162;2023-06-10T03:45:10;15.90;95.50
292;DHT22;23311;48.776;9.162;2023-06-10T03:47:39;15.90;95.50
292;DHT22;23311;48.776;9.162;2023-06-10T03:50:09;15.90;95.50
292;DHT22;23311;48.776;9.162;2023-06-10T03:52:38;15.90;95.50
292;DHT22;23311;48.776;9.162;2023-06-10T03:55:08;16.00;95.50
292;DHT22;23311;48.776;9.162;2023-06-10T03:57:38;16.00;95.50
292;DHT22;23311;48.776;9.162;2023-06-10T04:00:07;16.10;95.50
292;DHT22;23311;48.776;9.162;2023-06-10T04:02:37;16.40;95.50
292;DHT22;23311;48.776;9.162;2023-06-10T04:05:13;17.00;95.50
292;DHT22;23311;48.776;9.162;2023-06-10T04:07:42;17.90;95.50
292;DHT22;23311;48.776;9.162;2023-06-10T04:10:12;18.80;94.90
292;DHT22;23311;48.776;9.162;2023-06-10T04:12:40;19.50;92.60
292;DHT22;23311;48.776;9.162;2023-06-10T04:15:09;20.00;90.60
292;DHT22;23311;48.776;9.162;2023-06-10T04:17:38;20.40;89.00
292;DHT22;23311;48.776;9.162;2023-06-10T04:20:07;20.80;87.70
292;DHT22;23311;48.776;9.162;2023-06-10T04:22:36;21.10;87.40
292;DHT22;23311;48.776;9.162;2023-06-10T04:25:05;21.30;85.80
292;DHT22;23311;48.776;9.162;2023-06-10T04:27:36;21.90;84.70
292;DHT22;23311;48.776;9.162;2023-06-10T04:30:05;22.50;83.30
292;DHT22;23311;48.776;9.162;2023-06-10T04:32:33;22.90;81.90
292;DHT22;23311;48.776;9.162;2023-06-10T04:35:01;23.10;81.20
292;DHT22;23311;48.776;9.162;2023-06-10T04:37:29;23.10;81.40
292;DHT22;23311;48.776;9.162;2023-06-10T04:39:57;23.10;81.40
292;DHT22;23311;48.776;9.162;2023-06-10T04:42:27;22.80;81.80
292;DHT22;23311;48.776;9.162;2023-06-10T04:44:56;22.40;83.40
292;DHT22;23311;48.776;9.162;2023-06-10T04:47:25;22.00;83.60
292;DHT22;23311;48.776;9.162;2023-06-10T04:49:53;21.60;84.60
292;DHT22;23311;48.776;9.162;2023-06-10T04:52:21;21.30;85.70
292;DHT22;23311;48.776;9.162;2023-06-10T04:54:49;21.20;85.40
292;DHT22;23311;48.776;9.162;2023-06-10T04:57:17;21.10;86.00
292;DHT22;23311;48.776;9.162;2023-06-10T04:59:47;21.50;85.10
292;DHT22;23311;48.776;9.162;2023-06-10T05:02:16;21.80;84.20
292;DHT22;23311;48.776;9.162;2023-06-10T05:04:45;21.90;83.70
292;DHT22;23311;48.776;9.162;2023-06-10T05:07:13;21.90;83.80
292;DHT22;23311;48.776;9.162;2023-06-10T05:09:41;21.70;84.10
292;DHT22;23311;48.776;9.162;2023-06-10T05:12:09;21.70;84.20
292;DHT22;23311;48.776;9.162;2023-06-10T05:14:37;21.80;84.00
292;DHT22;23311;48.776;9.162;2023-06-10T05:17:05;22.00;83.90
292;DHT22;23311;48.776;9.162;2023-06-10T05:19:35;21.80;84.00
292;DHT22;23311;48.776;9.162;2023-06-10T05:22:04;21.80;84.40
292;DHT22;23311;48.776;9.162;2023-06-10T05:24:32;22.00;83.80
292;DHT22;23311;48.776;9.162;2023-06-10T05:27:00;22.70;82.70
292;DHT22;23311;48.776;9.162;2023-06-10T05:29:29;23.30;80.70
292;DHT22;23311;48.776;9.162;2023-06-10T05:31:57;23.40;79.40
292;DHT22;23311;48.776;9.162;2023-06-10T05:34:30;24.10;79.10
292;DHT22;23311;48.776;9.162;2023-06-10T05:36:59;25.00;76.80
292;DHT22;23311;48.776;9.162;2023-06-10T05:39:27;26.60;73.60
292;DHT22;23311;48.776;9.162;2023-06-10T05:41:56;26.60;72.20
292;DHT22;23311;48.776;9.162;2023-06-10T05:44:25;26.10;73.70
292;DHT22;23311;48.776;9.162;2023-06-10T05:46:53;27.10;72.10
292;DHT22;23311;48.776;9.162;2023-06-10T05:49:22;27.80;70.20
292;DHT22;23311;48.776;9.162;2023-06-10T05:51:50;28.60;68.90
292;DHT22;23311;48.776;9.162;2023-06-10T05:54:20;27.00;71.30
292;DHT22;23311;48.776;9.162;2023-06-10T05:56:48;27.60;70.30
292;DHT22;23311;48.776;9.162;2023-06-10T05:59:17;28.20;69.30
292;DHT22;23311;48.776;9.162;2023-06-10T06:01:45;28.30;69.00
292;DHT22;23311;48.776;9.162;2023-06-10T06:04:13;28.00;69.10
292;DHT22;23311;48.776;9.162;2023-06-10T06:06:41;28.50;68.70
292;DHT22;23311;48.776;9.162;2023-06-10T06:09:09;28.90;67.90
292;DHT22;23311;48.776;9.162;2023-06-10T06:11:39;29.10;67.60
292;DHT22;23311;48.776;9.162;2023-06-10T06:14:07;29.50;66.60
292;DHT22;23311;48.776;9.162;2023-06-10T06:16:35;29.40;66.60
292;DHT22;23311;48.776;9.162;2023-06-10T06:19:03;29.60;66.30
292;DHT22;23311;48.776;9.162;2023-06-10T06:21:31;29.90;65.80
292;DHT22;23311;48.776;9.162;2023-06-10T06:23:59;30.00;65.70
292;DHT22;23311;48.776;9.162;2023-06-10T06:26:28;30.20;65.40
292;DHT22;23311;48.776;9.162;2023-06-10T06:28:57;30.40;64.90
292;DHT22;23311;48.776;9.162;2023-06-10T06:31:25;30.90;64.00
292;DHT22;23311;48.776;9.162;2023-06-10T06:33:54;29.90;65.60
292;DHT22;23311;48.776;9.162;2023-06-10T06:36:22;30.00;65.80
292;DHT22;23311;48.776;9.162;2023-06-10T06:38:50;30.50;64.60
292;DHT22;23311;48.776;9.162;2023-06-10T06:41:18;30.20;65.10
292;DHT22;23311;48.776;9.162;2023-06-10T06:43:48;30.60;64.20
292;DHT22;23311;48.776;9.162;2023-06-10T06:46:18;29.60;66.10
292;DHT22;23311;48.776;9.162;2023-06-10T06:48:46;29.40;67.20
292;DHT22;23311;48.776;9.162;2023-06-10T06:51:15;30.60;65.00
292;DHT22;23311;48.776;9.162;2023-06-10T06:53:43;31.00;63.90
292;DHT22;23311;48.776;9.162;2023-06-10T06:56:12;31.60;62.90
292;DHT22;23311;48.776;9.162;2023-06-10T06:58:41;31.40;63.70
292;DHT22;23311;48.776;9.162;2023-06-10T07:01:09;31.00;63.40
292;DHT22;23311;48.776;9.162;2023-06-10T07:03:38;30.60;64.60
292;DHT22;23311;48.776;9.162;2023-06-10T07:06:06;30.30;65.30
292;DHT22;23311;48.776;9.162;2023-06-10T07:08:34;30.80;64.90
292;DHT22;23311;48.776;9.162;2023-06-10T07:11:03;31.70;63.00
292;DHT22;23311;48.776;9.162;2023-06-10T07:13:31;31.70;63.00
292;DHT22;23311;48.776;9.162;2023-06-10T07:15:59;32.20;62.40
292;DHT22;23311;48.776;9.162;2023-06-10T07:18:27;33.00;60.70
292;DHT22;23311;48.776;9.162;2023-06-10T07:20:56;32.70;61.00
292;DHT22;23311;48.776;9.162;2023-06-10T07:23:24;32.90;61.00
292;DHT22;23311;48.776;9.162;2023-06-10T07:25:52;33.40;60.50
292;DHT22;23311;48.776;9.162;2023-06-10T07:28:21;34.00;59.00
292;DHT22;23311;48.776;9.162;2023-06-10T07:30:49;32.80;60.40
292;DHT22;23311;48.776;9.162;2023-06-10T07:33:17;32.40;61.30
292;DHT22;23311;48.776;9.162;2023-06-10T07:35:45;31.50;62.60
292;DHT22;23311;48.776;9.162;2023-06-10T07:38:16;31.50;63.00
292;DHT22;23311;48.776;9.162;2023-06-10T07:40:45;32.00;61.90
292;DHT22;23311;48.776;9.162;2023-06-10T07:43:13;32.10;62.10
292;DHT22;23311;48.776;9.162;2023-06-10T07:45:41;32.30;61.40
292;DHT22;23311;48.776;9.162;2023-06-10T07:48:10;33.00;60.80
292;DHT22;23311;48.776;9.162;2023-06-10T07:50:39;31.90;61.40
292;DHT22;23311;48.776;9.162;2023-06-10T07:53:07;31.20;63.20
292;DHT22;23311;48.776;9.162;2023-06-10T07:55:36;31.70;62.80
292;DHT22;23311;48.776;9.162;2023-06-10T07:58:04;31.80;62.80
292;DHT22;23311;48.776;9.162;2023-06-10T08:00:33;32.10;62.00
292;DHT22;23311;48.776;9.162;2023-06-10T08:03:01;32.30;61.40
292;DHT22;23311;48.776;9.162;2023-06-10T08:05:29;32.10;62.00
292;DHT22;23311;48.776;9.162;2023-06-10T08:07:58;32.80;61.00
292;DHT22;23311;48.776;9.162;2023-06-10T08:10:29;32.30;61.60
292;DHT22;23311;48.776;9.162;2023-06-10T08:12:59;32.10;62.30
292;DHT22;23311;48.776;9.162;2023-06-10T08:15:28;33.20;60.70
292;DHT22;23311;48.776;9.162;2023-06-10T08:17:56;32.30;61.60
292;DHT22;23311;48.776;9.162;2023-06-10T08:20:24;32.30;61.90
292;DHT22;23311;48.776;9.162;2023-06-10T08:22:52;32.00;62.00
292;DHT22;23311;48.776;9.162;2023-06-10T08:25:21;31.90;61.90
292;DHT22;23311;48.776;9.162;2023-06-10T08:27:49;32.30;61.70
292;DHT22;23311;48.776;9.162;2023-06-10T08:30:20;32.50;61.10
292;DHT22;23311;48.776;9.162;2023-06-10T08:32:48;32.50;60.90
292;DHT22;23311;48.776;9.162;2023-06-10T08:35:16;32.30;61.20
292;DHT22;23311;48.776;9.162;2023-06-10T08:37:44;32.40;61.00
292;DHT22;23311;48.776;9.162;2023-06-10T08:40:13;32.80;60.80
292;DHT22;23311;48.776;9.162;2023-06-10T08:42:47;33.10;60.20
292;DHT22;23311;48.776;9.162;2023-06-10T08:45:17;33.20;59.90
292;DHT22;23311;48.776;9.162;2023-06-10T08:47:49;33.00;59.70
292;DHT22;23311;48.776;9.162;2023-06-10T08:50:19;32.40;60.40
292;DHT22;23311;48.776;9.162;2023-06-10T08:52:50;32.60;60.40
292;DHT22;23311;48.776;9.162;2023-06-10T08:55:25;33.40;59.50
292;DHT22;23311;48.776;9.162;2023-06-10T08:57:59;33.00;59.30
292;DHT22;23311;48.776;9.162;2023-06-10T09:00:28;33.40;59.20
292;DHT22;23311;48.776;9.162;2023-06-10T09:02:59;33.10;59.40
292;DHT22;23311;48.776;9.162;2023-06-10T09:05:33;33.90;58.10
292;DHT22;23311;48.776;9.162;2023-06-10T09:08:04;34.30;57.40
292;DHT22;23311;48.776;9.162;2023-06-10T09:10:33;33.70;57.70
292;DHT22;23311;48.776;9.162;2023-06-10T09:13:02;32.80;59.50
292;DHT22;23311;48.776;9.162;2023-06-10T09:15:30;32.20;60.40
292;DHT22;23311;48.776;9.162;2023-06-10T09:18:00;32.00;61.00
292;DHT22;23311;48.776;9.162;2023-06-10T09:20:29;32.70;59.60
292;DHT22;23311;48.776;9.162;2023-06-10T09:22:57;33.00;58.90
292;DHT22;23311;48.776;9.162;2023-06-10T09:25:35;33.10;59.20
292;DHT22;23311;48.776;9.162;2023-06-10T09:28:04;33.70;58.50
292;DHT22;23311;48.776;9.162;2023-06-10T09:30:33;33.00;59.20
292;DHT22;23311;48.776;9.162;2023-06-10T09:33:10;32.20;60.30
292;DHT22;23311;48.776;9.162;2023-06-10T09:35:46;31.90;61.00
292;DHT22;23311;48.776;9.162;2023-06-10T09:38:15;32.00;61.00
292;DHT22;23311;48.776;9.162;2023-06-10T09:40:50;32.80;59.70
292;DHT22;23311;48.776;9.162;2023-06-10T09:43:19;33.00;59.50
292;DHT22;23311;48.776;9.162;2023-06-10T09:45:48;33.30;59.10
292;DHT22;23311;48.776;9.162;2023-06-10T09:48:18;33.40;58.80
292;DHT22;23311;48.776;9.162;2023-06-10T09:50:48;34.10;58.00
292;DHT22;23311;48.776;9.162;2023-06-10T09:53:17;34.80;57.00
292;DHT22;23311;48.776;9.162;2023-06-10T09:55:45;34.60;57.20
292;DHT22;23311;48.776;9.162;2023-06-10T09:58:14;34.60;56.90
292;DHT22;23311;48.776;9.162;2023-06-10T10:00:42;34.80;56.20
292;DHT22;23311;48.776;9.162;2023-06-10T10:03:23;34.50;57.00
292;DHT22;23311;48.776;9.162;2023-06-10T10:05:58;35.20;56.20
292;DHT22;23311;48.776;9.162;2023-06-10T10:08:27;35.40;55.60
292;DHT22;23311;48.776;9.162;2023-06-10T10:10:57;34.80;56.20
292;DHT22;23311;48.776;9.162;2023-06-10T10:13:26;33.10;58.60
292;DHT22;23311;48.776;9.162;2023-06-10T10:15:57;33.20;58.90
292;DHT22;23311;48.776;9.162;2023-06-10T10:18:29;32.60;59.50
292;DHT22;23311;48.776;9.162;2023-06-10T10:21:07;32.80;59.40
292;DHT22;23311;48.776;9.162;2023-06-10T10:23:43;31.80;60.20
292;DHT22;23311;48.776;9.162;2023-06-10T10:26:13;33.10;59.40
292;DHT22;23311;48.776;9.162;2023-06-10T10:28:53;34.20;56.50
292;DHT22;23311;48.776;9.162;2023-06-10T10:31:27;35.60;55.00
292;DHT22;23311;48.776;9.162;2023-06-10T10:34:00;36.50;54.10
292;DHT22;23311;48.776;9.162;2023-06-10T10:36:29;36.20;54.40
292;DHT22;23311;48.776;9.162;2023-06-10T10:38:58;36.40;54.30
292;DHT22;23311;48.776;9.162;2023-06-10T10:41:30;36.60;53.20
292;DHT22;23311;48.776;9.162;2023-06-10T10:43:59;36.20;53.90
292;DHT22;23311;48.776;9.162;2023-06-10T10:46:30;36.30;54.00
292;DHT22;23311;48.776;9.162;2023-06-10T10:49:01;36.00;54.20
292;DHT22;23311;48.776;9.162;2023-06-10T10:51:34;36.10;53.80
292;DHT22;23311;48.776;9.162;2023-06-10T10:54:20;36.00;54.20
292;DHT22;23311;48.776;9.162;2023-06-10T10:57:12;35.50;54.20
292;DHT22;23311;48.776;9.162;2023-06-10T10:59:59;35.30;54.70
292;DHT22;23311;48.776;9.162;2023-06-10T11:02:33;35.10;54.70
292;DHT22;23311;48.776;9.162;2023-06-10T11:05:04;35.50;54.40
292;DHT22;23311;48.776;9.162;2023-06-10T11:07:34;34.60;56.10
292;DHT22;23311;48.776;9.162;2023-06-10T11:10:06;34.70;56.20
292;DHT22;23311;48.776;9.162;2023-06-10T11:12:41;34.50;56.40
292;DHT22;23311;48.776;9.162;2023-06-10T11:15:10;33.90;57.30
292;DHT22;23311;48.776;9.162;2023-06-10T11:18:14;34.10;57.30
292;DHT22;23311;48.776;9.162;2023-06-10T11:20:56;34.70;56.90
292;DHT22;23311;48.776;9.162;2023-06-10T11:23:48;33.50;58.00
292;DHT22;23311;48.776;9.162;2023-06-10T11:26:30;32.90;58.10
292;DHT22;23311;48.776;9.162;2023-06-10T11:29:09;33.20;58.20
292;DHT22;23311;48.776;9.162;2023-06-10T11:31:49;34.30;56.80
292;DHT22;23311;48.776;9.162;2023-06-10T11:34:23;34.80;55.80
292;DHT22;23311;48.776;9.162;2023-06-10T11:36:53;34.20;56.90
292;DHT22;23311;48.776;9.162;2023-06-10T11:39:22;34.90;55.80
292;DHT22;23311;48.776;9.162;2023-06-10T11:41:53;34.60;56.00
292;DHT22;23311;48.776;9.162;2023-06-10T11:44:22;33.90;56.30
292;DHT22;23311;48.776;9.162;2023-06-10T11:46:56;34.20;56.30
292;DHT22;23311;48.776;9.162;2023-06-10T11:49:24;33.80;57.10
292;DHT22;23311;48.776;9.162;2023-06-10T11:51:54;33.40;57.80
292;DHT22;23311;48.776;9.162;2023-06-10T11:54:23;34.30;56.10
292;DHT22;23311;48.776;9.162;2023-06-10T11:56:57;35.00;55.30
292;DHT22;23311;48.776;9.162;2023-06-10T11:59:27;35.30;55.00
292;DHT22;23311;48.776;9.162;2023-06-10T12:01:55;33.40;56.90
292;DHT22;23311;48.776;9.162;2023-06-10T12:04:24;33.30;57.50
292;DHT22;23311;48.776;9.162;2023-06-10T12:06:54;32.60;58.10
292;DHT22;23311;48.776;9.162;2023-06-10T12:09:23;31.90;59.00
292;DHT22;23311;48.776;9.162;2023-06-10T12:11:56;30.70;61.00
292;DHT22;23311;48.776;9.162;2023-06-10T12:14:51;31.70;60.10
292;DHT22;23311;48.776;9.162;2023-06-10T12:17:21;33.40;57.70
292;DHT22;23311;48.776;9.162;2023-06-10T12:19:50;33.90;56.20
292;DHT22;23311;48.776;9.162;2023-06-10T12:22:19;33.50;57.00
292;DHT22;23311;48.776;9.162;2023-06-10T12:25:00;33.50;56.90
292;DHT22;23311;48.776;9.162;2023-06-10T12:27:30;34.20;56.20
292;DHT22;23311;48.776;9.162;2023-06-10T12:30:00;33.60;56.80
292;DHT22;23311;48.776;9.162;2023-06-10T12:32:40;32.20;58.00
292;DHT22;23311;48.776;9.162;2023-06-10T12:35:10;31.70;59.20
292;DHT22;23311;48.776;9.162;2023-06-10T12:37:42;31.10;59.20
292;DHT22;23311;48.776;9.162;2023-06-10T12:40:10;30.60;60.10
292;DHT22;23311;48.776;9.162;2023-06-10T12:42:39;30.60;59.90
292;DHT22;23311;48.776;9.162;2023-06-10T12:45:09;30.80;59.40
292;DHT22;23311;48.776;9.162;2023-06-10T12:47:39;30.60;60.30
292;DHT22;23311;48.776;9.162;2023-06-10T12:50:09;30.40;60.90
292;DHT22;23311;48.776;9.162;2023-06-10T12:52:40;30.30;61.10
292;DHT22;23311;48.776;9.162;2023-06-10T12:55:09;30.30;61.30
292;DHT22;23311;48.776;9.162;2023-06-10T12:57:47;30.70;60.80
292;DHT22;23311;48.776;9.162;2023-06-10T13:00:16;32.10;58.90
292;DHT22;23311;48.776;9.162;2023-06-10T13:02:45;32.90;57.10
292;DHT22;23311;48.776;9.162;2023-06-10T13:05:13;33.80;56.10
292;DHT22;23311;48.776;9.162;2023-06-10T13:07:44;34.70;54.80
292;DHT22;23311;48.776;9.162;2023-06-10T13:10:12;34.10;55.70
292;DHT22;23311;48.776;9.162;2023-06-10T13:12:41;33.60;56.20
292;DHT22;23311;48.776;9.162;2023-06-10T13:15:15;33.10;56.70
292;DHT22;23311;48.776;9.162;2023-06-10T13:17:43;31.80;58.20
292;DHT22;23311;48.776;9.162;2023-06-10T13:20:12;31.20;59.40
292;DHT22;23311;48.776;9.162;2023-06-10T13:22:41;31.00;59.80
292;DHT22;23311;48.776;9.162;2023-06-10T13:25:10;31.80;59.20
292;DHT22;23311;48.776;9.162;2023-06-10T13:27:40;32.20;58.20
292;DHT22;23311;48.776;9.162;2023-06-10T13:30:10;32.70;57.60
292;DHT22;23311;48.776;9.162;2023-06-10T13:32:39;33.50;56.80
292;DHT22;23311;48.776;9.162;2023-06-10T13:35:07;34.00;55.70
292;DHT22;23311;48.776;9.162;2023-06-10T13:37:37;34.30;55.40
292;DHT22;23311;48.776;9.162;2023-06-10T13:40:06;34.50;55.00
292;DHT22;23311;48.776;9.162;2023-06-10T13:42:38;34.90;54.00
292;DHT22;23311;48.776;9.162;2023-06-10T13:45:06;34.60;54.00
292;DHT22;23311;48.776;9.162;2023-06-10T13:47:37;34.10;54.60
292;DHT22;23311;48.776;9.162;2023-06-10T13:50:06;34.60;54.30
292;DHT22;23311;48.776;9.162;2023-06-10T13:52:35;35.10;53.50
292;DHT22;23311;48.776;9.162;2023-06-10T13:55:04;33.80;55.00
292;DHT22;23311;48.776;9.162;2023-06-10T13:57:32;32.60;56.40
292;DHT22;23311;48.776;9.162;2023-06-10T14:00:01;31.70;58.10
292;DHT22;23311;48.776;9.162;2023-06-10T14:02:29;31.00;59.00
292;DHT22;23311;48.776;9.162;2023-06-10T14:04:58;30.50;59.80
292;DHT22;23311;48.776;9.162;2023-06-10T14:07:26;30.10;60.80
292;DHT22;23311;48.776;9.162;2023-06-10T14:09:55;30.00;60.90
292;DHT22;23311;48.776;9.162;2023-06-10T14:12:23;30.70;60.20
292;DHT22;23311;48.776;9.162;2023-06-10T14:14:51;31.90;57.90
292;DHT22;23311;48.776;9.162;2023-06-10T14:17:21;32.80;56.40
292;DHT22;23311;48.776;9.162;2023-06-10T14:19:50;33.50;55.60
292;DHT22;23311;48.776;9.162;2023-06-10T14:22:18;33.70;55.40
292;DHT22;23311;48.776;9.162;2023-06-10T14:24:46;33.80;55.40
292;DHT22;23311;48.776;9.162;2023-06-10T14:27:14;33.40;55.60
292;DHT22;23311;48.776;9.162;2023-06-10T14:29:43;33.30;55.80
292;DHT22;23311;48.776;9.162;2023-06-10T14:32:11;33.40;55.90
292;DHT22;23311;48.776;9.162;2023-06-10T14:34:40;33.70;55.50
292;DHT22;23311;48.776;9.162;2023-06-10T14:37:11;33.50;55.90
292;DHT22;23311;48.776;9.162;2023-06-10T14:39:39;34.00;54.90
292;DHT22;23311;48.776;9.162;2023-06-10T14:42:07;34.00;55.10
292;DHT22;23311;48.776;9.162;2023-06-10T14:44:35;33.20;55.60
292;DHT22;23311;48.776;9.162;2023-06-10T14:47:04;31.90;57.70
292;DHT22;23311;48.776;9.162;2023-06-10T14:49:32;32.00;58.00
292;DHT22;23311;48.776;9.162;2023-06-10T14:52:01;33.10;57.00
292;DHT22;23311;48.776;9.162;2023-06-10T14:54:29;33.90;56.10
292;DHT22;23311;48.776;9.162;2023-06-10T14:56:57;34.10;55.70
292;DHT22;23311;48.776;9.162;2023-06-10T14:59:25;33.30;55.60
292;DHT22;23311;48.776;9.162;2023-06-10T15:01:53;32.50;56.90
292;DHT22;23311;48.776;9.162;2023-06-10T15:04:22;32.50;56.90
292;DHT22;23311;48.776;9.162;2023-06-10T15:06:50;32.80;57.00
292;DHT22;23311;48.776;9.162;2023-06-10T15:09:20;32.80;56.20
292;DHT22;23311;48.776;9.162;2023-06-10T15:11:48;32.60;56.60
292;DHT22;23311;48.776;9.162;2023-06-10T15:14:16;32.90;56.70
292;DHT22;23311;48.776;9.162;2023-06-10T15:16:44;32.90;56.60
292;DHT22;23311;48.776;9.162;2023-06-10T15:19:12;31.90;58.30
292;DHT22;23311;48.776;9.162;2023-06-10T15:21:40;31.90;58.60
292;DHT22;23311;48.776;9.162;2023-06-10T15:24:09;31.20;59.40
292;DHT22;23311;48.776;9.162;2023-06-10T15:26:39;30.80;60.60
292;DHT22;23311;48.776;9.162;2023-06-10T15:29:07;30.30;61.30
292;DHT22;23311;48.776;9.162;2023-06-10T15:31:36;29.70;62.40
292;DHT22;23311;48.776;9.162;2023-06-10T15:34:04;29.90;62.40
292;DHT22;23311;48.776;9.162;2023-06-10T15:36:33;31.20;60.50
292;DHT22;23311;48.776;9.162;2023-06-10T15:39:04;32.10;58.30
292;DHT22;23311;48.776;9.162;2023-06-10T15:41:33;32.70;57.40
292;DHT22;23311;48.776;9.162;2023-06-10T15:44:03;33.00;56.30
292;DHT22;23311;48.776;9.162;2023-06-10T15:46:31;32.80;56.10
292;DHT22;23311;48.776;9.162;2023-06-10T15:49:01;32.80;56.20
292;DHT22;23311;48.776;9.162;2023-06-10T15:51:29;33.00;56.30
292;DHT22;23311;48.776;9.162;2023-06-10T15:53:57;33.50;56.00
292;DHT22;23311;48.776;9.162;2023-06-10T15:56:26;33.50;55.60
292;DHT22;23311;48.776;9.162;2023-06-10T15:58:54;33.60;55.50
292;DHT22;23311;48.776;9.162;2023-06-10T16:01:23;33.50;56.10
292;DHT22;23311;48.776;9.162;2023-06-10T16:03:51;33.50;55.70
292;DHT22;23311;48.776;9.162;2023-06-10T16:06:20;33.50;56.30
292;DHT22;23311;48.776;9.162;2023-06-10T16:08:48;33.60;55.30
292;DHT22;23311;48.776;9.162;2023-06-10T16:11:17;32.90;55.60
292;DHT22;23311;48.776;9.162;2023-06-10T16:13:45;32.70;56.20
292;DHT22;23311;48.776;9.162;2023-06-10T16:16:13;32.90;56.10
292;DHT22;23311;48.776;9.162;2023-06-10T16:18:43;33.20;55.70